sensor_id;sensor_type;location;lat;lon;timestamp;pressure;altitude;pressure_sealevel;temperature;humidity
68301;BME280;55146;47.468;18.806;2023-01-08T00:01:39;100295.16;;;6.22;100.00
68301;BME280;55146;47.468;18.806;2023-01-08T00:04:05;100279.72;;;6.27;100.00
68301;BME280;55146;47.468;18.806;2023-01-08T00:06:30;100285.28;;;6.32;100.00
68301;BME280;55146;47.468;18.806;2023-01-08T00:08:55;100280.19;;;6.24;100.00
68301;BME280;55146;47.468;18.806;2023-01-08T00:11:21;100278.97;;;6.32;100.00
68301;BME280;55146;47.468;18.806;2023-01-08T00:13:46;100278.38;;;6.30;100.00
68301;BME280;55146;47.468;18.806;2023-01-08T00:16:14;100272.22;;;6.34;100.00
68301;BME280;55146;47.468;18.806;2023-01-08T00:18:39;100280.50;;;6.39;100.00
68301;BME280;55146;47.468;18.806;2023-01-08T00:21:05;100271.94;;;6.36;100.00
68301;BME280;55146;47.468;18.806;2023-01-08T00:23:31;100279.56;;;6.34;100.00
68301;BME280;55146;47.468;18.806;2023-01-08T00:26:00;100271.37;;;6.34;100.00
68301;BME280;55146;47.468;18.806;2023-01-08T00:28:26;100265.56;;;6.30;100.00
68301;BME280;55146;47.468;18.806;2023-01-08T00:30:52;100261.66;;;6.26;100.00
68301;BME280;55146;47.468;18.806;2023-01-08T00:33:17;100261.88;;;6.25;100.00
68301;BME280;55146;47.468;18.806;2023-01-08T00:35:43;100266.66;;;6.18;100.00
68301;BME280;55146;47.468;18.806;2023-01-08T00:38:08;100271.75;;;6.26;100.00
68301;BME280;55146;47.468;18.806;2023-01-08T00:40:34;100268.22;;;6.14;100.00
68301;BME280;55146;47.468;18.806;2023-01-08T00:43:00;100276.28;;;6.20;100.00
68301;BME280;55146;47.468;18.806;2023-01-08T00:45:25;100281.50;;;6.22;100.00
68301;BME280;55146;47.468;18.806;2023-01-08T00:47:51;100285.19;;;6.16;100.00
68301;BME280;55146;47.468;18.806;2023-01-08T00:50:16;100294.19;;;6.28;100.00
68301;BME280;55146;47.468;18.806;2023-01-08T00:52:42;100290.25;;;6.35;100.00
68301;BME280;55146;47.468;18.806;2023-01-08T00:55:07;100292.81;;;6.42;100.00
68301;BME280;55146;47.468;18.806;2023-01-08T00:57:34;100282.03;;;6.47;100.00
68301;BME280;55146;47.468;18.806;2023-01-08T01:00:00;100288.00;;;6.32;100.00
68301;BME280;55146;47.468;18.806;2023-01-08T01:02:25;100288.72;;;6.28;100.00
68301;BME280;55146;47.468;18.806;2023-01-08T01:04:52;100277.72;;;6.23;100.00
68301;BME280;55146;47.468;18.806;2023-01-08T01:07:17;100288.00;;;6.32;100.00
68301;BME280;55146;47.468;18.806;2023-01-08T01:09:43;100286.56;;;6.30;100.00
68301;BME280;55146;47.468;18.806;2023-01-08T01:12:08;100279.34;;;6.35;100.00
68301;BME280;55146;47.468;18.806;2023-01-08T01:14:36;100284.19;;;6.33;100.00
68301;BME280;55146;47.468;18.806;2023-01-08T01:17:02;100273.12;;;6.40;100.00
68301;BME280;55146;47.468;18.806;2023-01-08T01:19:27;100281.69;;;6.32;100.00
68301;BME280;55146;47.468;18.806;2023-01-08T01:21:53;100282.66;;;6.26;100.00
68301;BME280;55146;47.468;18.806;2023-01-08T01:24:18;100273.88;;;6.35;100.00
68301;BME280;55146;47.468;18.806;2023-01-08T01:26:46;100271.16;;;6.24;100.00
68301;BME280;55146;47.468;18.806;2023-01-08T01:29:11;100270.69;;;6.27;100.00
68301;BME280;55146;47.468;18.806;2023-01-08T01:31:36;100260.53;;;6.39;100.00
68301;BME280;55146;47.468;18.806;2023-01-08T01:34:02;100260.31;;;6.40;100.00
68301;BME280;55146;47.468;18.806;2023-01-08T01:36:27;100260.22;;;6.24;100.00
68301;BME280;55146;47.468;18.806;2023-01-08T01:38:55;100260.63;;;6.16;100.00
68301;BME280;55146;47.468;18.806;2023-01-08T01:43:49;100254.28;;;6.27;100.00
68301;BME280;55146;47.468;18.806;2023-01-08T01:46:32;100246.19;;;6.32;100.00
68301;BME280;55146;47.468;18.806;2023-01-08T01:49:04;100246.78;;;6.34;100.00
68301;BME280;55146;47.468;18.806;2023-01-08T01:51:32;100234.94;;;6.28;100.00
68301;BME280;55146;47.468;18.806;2023-01-08T01:54:00;100230.44;;;6.22;100.00
68301;BME280;55146;47.468;18.806;2023-01-08T01:56:27;100222.94;;;6.29;100.00
68301;BME280;55146;47.468;18.806;2023-01-08T01:58:53;100211.50;;;6.32;100.00
68301;BME280;55146;47.468;18.806;2023-01-08T02:01:19;100211.28;;;6.34;100.00
68301;BME280;55146;47.468;18.806;2023-01-08T02:03:45;100202.72;;;6.30;100.00
68301;BME280;55146;47.468;18.806;2023-01-08T02:06:34;100200.19;;;6.12;100.00
68301;BME280;55146;47.468;18.806;2023-01-08T02:14:03;100191.28;;;6.17;100.00
68301;BME280;55146;47.468;18.806;2023-01-08T02:16:41;100195.91;;;6.16;100.00
68301;BME280;55146;47.468;18.806;2023-01-08T02:19:42;100192.19;;;6.22;100.00
68301;BME280;55146;47.468;18.806;2023-01-08T02:28:14;100188.88;;;5.92;100.00
68301;BME280;55146;47.468;18.806;2023-01-08T02:30:41;100181.25;;;5.94;100.00
68301;BME280;55146;47.468;18.806;2023-01-08T02:33:06;100186.56;;;6.00;100.00
68301;BME280;55146;47.468;18.806;2023-01-08T02:35:39;100189.66;;;6.04;100.00
68301;BME280;55146;47.468;18.806;2023-01-08T02:38:09;100175.50;;;6.07;100.00
68301;BME280;55146;47.468;18.806;2023-01-08T02:40:54;100181.34;;;5.99;100.00
68301;BME280;55146;47.468;18.806;2023-01-08T02:43:26;100176.34;;;6.07;100.00
68301;BME280;55146;47.468;18.806;2023-01-08T02:45:57;100176.16;;;5.97;100.00
68301;BME280;55146;47.468;18.806;2023-01-08T02:48:35;100181.25;;;5.94;100.00
68301;BME280;55146;47.468;18.806;2023-01-08T02:51:15;100179.94;;;5.96;100.00
68301;BME280;55146;47.468;18.806;2023-01-08T02:53:47;100185.16;;;5.98;100.00
68301;BME280;55146;47.468;18.806;2023-01-08T02:56:17;100175.19;;;6.03;100.00
68301;BME280;55146;47.468;18.806;2023-01-08T02:58:43;100175.03;;;6.10;100.00
68301;BME280;55146;47.468;18.806;2023-01-08T03:01:10;100170.62;;;6.09;100.00
68301;BME280;55146;47.468;18.806;2023-01-08T03:03:38;100177.53;;;6.00;100.00
68301;BME280;55146;47.468;18.806;2023-01-08T03:06:11;100170.28;;;6.05;100.00
68301;BME280;55146;47.468;18.806;2023-01-08T03:08:39;100178.59;;;6.11;100.00
68301;BME280;55146;47.468;18.806;2023-01-08T03:11:09;100178.59;;;6.11;100.00
68301;BME280;55146;47.468;18.806;2023-01-08T03:13:54;100181.41;;;6.16;100.00
68301;BME280;55146;47.468;18.806;2023-01-08T03:16:37;100180.38;;;6.05;100.00
68301;BME280;55146;47.468;18.806;2023-01-08T03:19:16;100186.88;;;6.16;100.00
68301;BME280;55146;47.468;18.806;2023-01-08T03:21:44;100169.13;;;6.01;100.00
68301;BME280;55146;47.468;18.806;2023-01-08T03:24:16;100167.91;;;6.09;100.00
68301;BME280;55146;47.468;18.806;2023-01-08T03:26:42;100167.06;;;6.08;100.00
68301;BME280;55146;47.468;18.806;2023-01-08T03:29:13;100167.53;;;6.05;100.00
68301;BME280;55146;47.468;18.806;2023-01-08T03:31:40;100168.75;;;6.09;100.00
68301;BME280;55146;47.468;18.806;2023-01-08T03:34:07;100166.00;;;6.09;100.00
68301;BME280;55146;47.468;18.806;2023-01-08T03:36:34;100170.97;;;6.13;100.00
68301;BME280;55146;47.468;18.806;2023-01-08T03:39:09;100176.25;;;6.02;100.00
68301;BME280;55146;47.468;18.806;2023-01-08T03:41:38;100157.47;;;6.06;100.00
68301;BME280;55146;47.468;18.806;2023-01-08T03:44:03;100157.47;;;6.06;100.00
68301;BME280;55146;47.468;18.806;2023-01-08T03:46:35;100151.31;;;5.99;100.00
68301;BME280;55146;47.468;18.806;2023-01-08T03:49:04;100157.16;;;5.91;100.00
68301;BME280;55146;47.468;18.806;2023-01-08T03:51:40;100152.97;;;6.00;100.00
68301;BME280;55146;47.468;18.806;2023-01-08T03:54:09;100156.53;;;6.00;100.00
68301;BME280;55146;47.468;18.806;2023-01-08T03:56:36;100143.38;;;5.97;100.00
68301;BME280;55146;47.468;18.806;2023-01-08T03:59:02;100151.66;;;6.02;100.00
68301;BME280;55146;47.468;18.806;2023-01-08T04:01:27;100155.78;;;6.05;100.00
68301;BME280;55146;47.468;18.806;2023-01-08T04:03:52;100159.63;;;6.04;100.00
68301;BME280;55146;47.468;18.806;2023-01-08T04:06:18;100165.91;;;6.04;100.00
68301;BME280;55146;47.468;18.806;2023-01-08T04:08:46;100166.66;;;5.88;100.00
68301;BME280;55146;47.468;18.806;2023-01-08T04:11:11;100168.88;;;6.03;100.00
68301;BME280;55146;47.468;18.806;2023-01-08T04:13:37;100167.91;;;6.09;100.00
68301;BME280;55146;47.468;18.806;2023-01-08T04:16:02;100169.06;;;6.13;100.00
68301;BME280;55146;47.468;18.806;2023-01-08T04:18:28;100157.75;;;5.93;100.00
68301;BME280;55146;47.468;18.806;2023-01-08T04:20:53;100158.34;;;5.83;100.00
68301;BME280;55146;47.468;18.806;2023-01-08T04:23:18;100153.38;;;5.92;100.00
68301;BME280;55146;47.468;18.806;2023-01-08T04:25:44;100139.13;;;5.90;100.00
68301;BME280;55146;47.468;18.806;2023-01-08T04:28:09;100148.63;;;5.87;100.00
68301;BME280;55146;47.468;18.806;2023-01-08T04:30:35;100150.97;;;5.95;100.00
68301;BME280;55146;47.468;18.806;2023-01-08T04:33:01;100157.03;;;5.97;100.00
68301;BME280;55146;47.468;18.806;2023-01-08T04:35:26;100157.72;;;6.04;100.00
68301;BME280;55146;47.468;18.806;2023-01-08T04:37:51;100156.91;;;6.04;100.00
68301;BME280;55146;47.468;18.806;2023-01-08T04:40:17;100157.38;;;6.01;100.00
68301;BME280;55146;47.468;18.806;2023-01-08T04:42:42;100160.00;;;5.96;100.00
68301;BME280;55146;47.468;18.806;2023-01-08T04:45:08;100154.63;;;6.01;100.00
68301;BME280;55146;47.468;18.806;2023-01-08T04:47:33;100162.03;;;5.89;100.00
68301;BME280;55146;47.468;18.806;2023-01-08T04:49:58;100163.47;;;5.80;100.00
68301;BME280;55146;47.468;18.806;2023-01-08T04:52:24;100159.66;;;5.81;100.00
68301;BME280;55146;47.468;18.806;2023-01-08T04:54:49;100158.47;;;5.77;100.00
68301;BME280;55146;47.468;18.806;2023-01-08T04:57:14;100147.44;;;5.83;100.00
68301;BME280;55146;47.468;18.806;2023-01-08T04:59:40;100153.25;;;5.75;100.00
68301;BME280;55146;47.468;18.806;2023-01-08T05:02:05;100147.19;;;5.85;100.00
68301;BME280;55146;47.468;18.806;2023-01-08T05:04:31;100140.88;;;5.96;100.00
68301;BME280;55146;47.468;18.806;2023-01-08T05:06:56;100155.37;;;5.96;100.00
68301;BME280;55146;47.468;18.806;2023-01-08T05:09:21;100150.06;;;5.90;100.00
68301;BME280;55146;47.468;18.806;2023-01-08T05:11:47;100140.97;;;6.01;100.00
68301;BME280;55146;47.468;18.806;2023-01-08T05:14:12;100137.09;;;5.97;100.00
68301;BME280;55146;47.468;18.806;2023-01-08T05:16:37;100135.72;;;5.71;100.00
68301;BME280;55146;47.468;18.806;2023-01-08T05:19:03;100142.09;;;5.88;100.00
68301;BME280;55146;47.468;18.806;2023-01-08T05:21:28;100135.22;;;5.86;100.00
68301;BME280;55146;47.468;18.806;2023-01-08T05:23:53;100138.91;;;5.91;100.00
68301;BME280;55146;47.468;18.806;2023-01-08T05:26:19;100134.25;;;5.92;100.00
68301;BME280;55146;47.468;18.806;2023-01-08T05:28:44;100136.63;;;5.88;100.00
68301;BME280;55146;47.468;18.806;2023-01-08T05:31:10;100130.81;;;5.85;100.00
68301;BME280;55146;47.468;18.806;2023-01-08T05:33:38;100132.84;;;5.78;100.00
68301;BME280;55146;47.468;18.806;2023-01-08T05:36:08;100131.06;;;5.83;100.00
68301;BME280;55146;47.468;18.806;2023-01-08T05:38:34;100122.16;;;5.88;100.00
68301;BME280;55146;47.468;18.806;2023-01-08T05:41:00;100130.81;;;5.96;100.00
68301;BME280;55146;47.468;18.806;2023-01-08T05:43:25;100126.31;;;5.90;100.00
68301;BME280;55146;47.468;18.806;2023-01-08T05:45:51;100116.25;;;5.79;100.00
68301;BME280;55146;47.468;18.806;2023-01-08T05:48:16;100127.25;;;5.96;100.00
68301;BME280;55146;47.468;18.806;2023-01-08T05:50:41;100128.56;;;5.82;100.00
68301;BME280;55146;47.468;18.806;2023-01-08T05:53:08;100114.66;;;5.83;100.00
68301;BME280;55146;47.468;18.806;2023-01-08T05:55:34;100115.31;;;5.74;100.00
68301;BME280;55146;47.468;18.806;2023-01-08T05:58:03;100113.00;;;5.82;100.00
68301;BME280;55146;47.468;18.806;2023-01-08T06:00:30;100104.81;;;5.82;100.00
68301;BME280;55146;47.468;18.806;2023-01-08T06:02:56;100102.59;;;5.79;100.00
68301;BME280;55146;47.468;18.806;2023-01-08T06:05:21;100099.41;;;5.70;100.00
68301;BME280;55146;47.468;18.806;2023-01-08T06:07:46;100091.87;;;5.89;100.00
68301;BME280;55146;47.468;18.806;2023-01-08T06:10:12;100090.34;;;5.82;100.00
68301;BME280;55146;47.468;18.806;2023-01-08T06:12:37;100093.84;;;5.65;100.00
68301;BME280;55146;47.468;18.806;2023-01-08T06:15:03;100090.84;;;5.79;100.00
68301;BME280;55146;47.468;18.806;2023-01-08T06:17:30;100088.22;;;5.84;100.00
68301;BME280;55146;47.468;18.806;2023-01-08T06:19:55;100086.06;;;5.86;100.00
68301;BME280;55146;47.468;18.806;2023-01-08T06:22:20;100091.87;;;5.89;100.00
68301;BME280;55146;47.468;18.806;2023-01-08T06:24:46;100087.63;;;5.82;100.00
68301;BME280;55146;47.468;18.806;2023-01-08T06:27:11;100095.31;;;5.85;100.00
68301;BME280;55146;47.468;18.806;2023-01-08T06:29:36;100089.41;;;5.76;100.00
68301;BME280;55146;47.468;18.806;2023-01-08T06:32:02;100093.81;;;5.77;100.00
68301;BME280;55146;47.468;18.806;2023-01-08T06:34:27;100089.19;;;5.78;100.00
68301;BME280;55146;47.468;18.806;2023-01-08T06:36:52;100102.91;;;5.83;100.00
68301;BME280;55146;47.468;18.806;2023-01-08T06:39:18;100094.47;;;5.96;100.00
68301;BME280;55146;47.468;18.806;2023-01-08T06:41:43;100088.56;;;5.87;100.00
68301;BME280;55146;47.468;18.806;2023-01-08T06:44:08;100092.13;;;5.88;100.00
68301;BME280;55146;47.468;18.806;2023-01-08T06:46:34;100100.41;;;5.93;100.00
68301;BME280;55146;47.468;18.806;2023-01-08T06:49:07;100091.16;;;5.82;100.00
68301;BME280;55146;47.468;18.806;2023-01-08T06:51:33;100096.41;;;5.84;100.00
68301;BME280;55146;47.468;18.806;2023-01-08T06:53:58;100093.75;;;6.00;100.00
68301;BME280;55146;47.468;18.806;2023-01-08T06:56:24;100090.22;;;5.88;100.00
68301;BME280;55146;47.468;18.806;2023-01-08T06:58:49;100092.25;;;5.81;100.00
68301;BME280;55146;47.468;18.806;2023-01-08T07:01:15;100085.84;;;5.76;100.00
68301;BME280;55146;47.468;18.806;2023-01-08T07:03:40;100085.38;;;5.79;100.00
68301;BME280;55146;47.468;18.806;2023-01-08T07:06:06;100086.53;;;5.83;100.00
68301;BME280;55146;47.468;18.806;2023-01-08T07:08:35;100085.53;;;5.72;100.00
68301;BME280;55146;47.468;18.806;2023-01-08T07:11:02;100092.97;;;5.77;100.00
68301;BME280;55146;47.468;18.806;2023-01-08T07:13:28;100096.88;;;5.81;100.00
68301;BME280;55146;47.468;18.806;2023-01-08T07:15:53;100091.69;;;5.79;100.00
68301;BME280;55146;47.468;18.806;2023-01-08T07:18:20;100091.75;;;5.96;100.00
68301;BME280;55146;47.468;18.806;2023-01-08T07:20:47;100090.59;;;5.92;100.00
68301;BME280;55146;47.468;18.806;2023-01-08T07:23:12;100082.72;;;5.95;100.00
68301;BME280;55146;47.468;18.806;2023-01-08T07:25:38;100078.25;;;5.78;100.00
68301;BME280;55146;47.468;18.806;2023-01-08T07:28:04;100081.69;;;5.85;100.00
68301;BME280;55146;47.468;18.806;2023-01-08T07:30:29;100078.25;;;5.78;100.00
68301;BME280;55146;47.468;18.806;2023-01-08T07:32:59;100077.94;;;6.02;100.00
68301;BME280;55146;47.468;18.806;2023-01-08T07:35:24;100081.06;;;5.94;100.00
68301;BME280;55146;47.468;18.806;2023-01-08T07:37:50;100078.03;;;5.79;100.00
68301;BME280;55146;47.468;18.806;2023-01-08T07:40:16;100074.91;;;5.87;100.00
68301;BME280;55146;47.468;18.806;2023-01-08T07:42:41;100075.03;;;5.92;100.00
68301;BME280;55146;47.468;18.806;2023-01-08T07:45:07;100079.41;;;5.93;100.00
68301;BME280;55146;47.468;18.806;2023-01-08T07:47:32;100071.31;;;5.87;100.00
68301;BME280;55146;47.468;18.806;2023-01-08T07:49:58;100074.69;;;5.89;100.00
68301;BME280;55146;47.468;18.806;2023-01-08T07:52:23;100079.31;;;5.88;100.00
68301;BME280;55146;47.468;18.806;2023-01-08T07:54:48;100061.63;;;5.91;100.00
68301;BME280;55146;47.468;18.806;2023-01-08T07:57:14;100061.28;;;5.76;100.00
68301;BME280;55146;47.468;18.806;2023-01-08T07:59:39;100060.00;;;5.78;100.00
68301;BME280;55146;47.468;18.806;2023-01-08T08:02:04;100068.88;;;5.85;100.00
68301;BME280;55146;47.468;18.806;2023-01-08T08:04:30;100068.59;;;5.87;100.00
68301;BME280;55146;47.468;18.806;2023-01-08T08:06:55;100060.78;;;5.90;100.00
68301;BME280;55146;47.468;18.806;2023-01-08T08:09:21;100053.09;;;5.87;100.00
68301;BME280;55146;47.468;18.806;2023-01-08T08:11:46;100051.88;;;5.95;100.00
68301;BME280;55146;47.468;18.806;2023-01-08T08:14:12;100048.38;;;5.71;100.00
68301;BME280;55146;47.468;18.806;2023-01-08T08:16:37;100043.59;;;5.90;100.00
68301;BME280;55146;47.468;18.806;2023-01-08T08:19:03;100045.00;;;5.81;100.00
68301;BME280;55146;47.468;18.806;2023-01-08T08:21:28;100052.47;;;5.85;100.00
68301;BME280;55146;47.468;18.806;2023-01-08T08:23:54;100052.22;;;5.87;100.00
68301;BME280;55146;47.468;18.806;2023-01-08T08:26:20;100042.16;;;5.87;100.00
68301;BME280;55146;47.468;18.806;2023-01-08T08:28:45;100041.69;;;5.90;100.00
68301;BME280;55146;47.468;18.806;2023-01-08T08:31:11;100039.19;;;5.89;100.00
68301;BME280;55146;47.468;18.806;2023-01-08T08:33:37;100034.81;;;5.88;100.00
68301;BME280;55146;47.468;18.806;2023-01-08T08:36:02;100037.97;;;5.96;100.00
68301;BME280;55146;47.468;18.806;2023-01-08T08:38:27;100040.13;;;5.94;100.00
68301;BME280;55146;47.468;18.806;2023-01-08T08:40:53;100027.72;;;6.03;100.00
68301;BME280;55146;47.468;18.806;2023-01-08T08:43:18;100035.00;;;5.98;100.00
68301;BME280;55146;47.468;18.806;2023-01-08T08:45:44;100032.78;;;6.12;100.00
68301;BME280;55146;47.468;18.806;2023-01-08T08:48:09;100025.53;;;6.17;100.00
68301;BME280;55146;47.468;18.806;2023-01-08T08:50:36;100028.50;;;6.32;100.00
68301;BME280;55146;47.468;18.806;2023-01-08T08:53:03;100020.88;;;6.51;99.30
68301;BME280;55146;47.468;18.806;2023-01-08T08:55:29;100026.19;;;6.41;99.57
68301;BME280;55146;47.468;18.806;2023-01-08T08:58:01;100016.31;;;6.57;99.04
68301;BME280;55146;47.468;18.806;2023-01-08T09:00:27;100014.78;;;6.82;97.97
68301;BME280;55146;47.468;18.806;2023-01-08T09:02:53;100024.53;;;6.95;96.67
68301;BME280;55146;47.468;18.806;2023-01-08T09:05:18;100010.91;;;6.78;96.44
68301;BME280;55146;47.468;18.806;2023-01-08T09:07:44;100011.94;;;6.94;96.22
68301;BME280;55146;47.468;18.806;2023-01-08T09:10:09;100010.03;;;7.16;94.96
68301;BME280;55146;47.468;18.806;2023-01-08T09:12:34;100008.69;;;7.41;93.85
68301;BME280;55146;47.468;18.806;2023-01-08T09:15:00;100009.47;;;7.14;95.08
68301;BME280;55146;47.468;18.806;2023-01-08T09:17:25;100001.25;;;7.36;93.23
68301;BME280;55146;47.468;18.806;2023-01-08T09:19:51;100004.25;;;7.13;93.44
68301;BME280;55146;47.468;18.806;2023-01-08T09:22:16;100006.41;;;7.32;94.00
68301;BME280;55146;47.468;18.806;2023-01-08T09:24:42;99997.88;;;7.51;91.81
68301;BME280;55146;47.468;18.806;2023-01-08T09:27:07;99995.06;;;7.46;92.12
68301;BME280;55146;47.468;18.806;2023-01-08T09:29:32;100002.06;;;7.37;92.11
68301;BME280;55146;47.468;18.806;2023-01-08T09:31:58;99988.56;;;7.52;91.80
68301;BME280;55146;47.468;18.806;2023-01-08T09:34:24;99989.50;;;7.62;91.71
68301;BME280;55146;47.468;18.806;2023-01-08T09:36:50;99973.25;;;7.78;90.04
68301;BME280;55146;47.468;18.806;2023-01-08T09:39:16;99977.94;;;7.82;89.45
68301;BME280;55146;47.468;18.806;2023-01-08T09:41:44;99970.87;;;7.91;89.49
68301;BME280;55146;47.468;18.806;2023-01-08T09:44:14;99968.47;;;7.95;88.86
68301;BME280;55146;47.468;18.806;2023-01-08T09:46:41;99969.75;;;8.14;88.51
68301;BME280;55146;47.468;18.806;2023-01-08T09:49:11;99954.53;;;8.33;87.01
68301;BME280;55146;47.468;18.806;2023-01-08T09:51:39;99959.88;;;8.45;85.88
68301;BME280;55146;47.468;18.806;2023-01-08T09:54:05;99951.81;;;8.33;86.44
68301;BME280;55146;47.468;18.806;2023-01-08T09:56:35;99949.13;;;8.38;86.80
68301;BME280;55146;47.468;18.806;2023-01-08T09:59:02;99934.03;;;8.36;86.18
68301;BME280;55146;47.468;18.806;2023-01-08T10:01:33;99937.19;;;8.60;85.28
68301;BME280;55146;47.468;18.806;2023-01-08T10:04:23;99933.37;;;8.66;85.61
68301;BME280;55146;47.468;18.806;2023-01-08T10:06:53;99924.87;;;8.25;86.65
68301;BME280;55146;47.468;18.806;2023-01-08T10:09:26;99920.56;;;8.34;86.65
68301;BME280;55146;47.468;18.806;2023-01-08T10:11:52;99922.94;;;8.21;87.13
68301;BME280;55146;47.468;18.806;2023-01-08T10:14:24;99917.66;;;7.77;88.52
68301;BME280;55146;47.468;18.806;2023-01-08T10:16:55;99905.47;;;7.63;89.53
68301;BME280;55146;47.468;18.806;2023-01-08T10:19:22;99901.09;;;7.62;90.18
68301;BME280;55146;47.468;18.806;2023-01-08T10:21:49;99903.47;;;7.85;89.56
68301;BME280;55146;47.468;18.806;2023-01-08T10:24:14;99896.13;;;7.91;89.19
68301;BME280;55146;47.468;18.806;2023-01-08T10:26:40;99898.94;;;8.33;86.97
68301;BME280;55146;47.468;18.806;2023-01-08T10:29:17;99897.00;;;8.33;86.85
68301;BME280;55146;47.468;18.806;2023-01-08T10:31:54;99891.94;;;8.57;86.02
68301;BME280;55146;47.468;18.806;2023-01-08T10:34:48;99891.75;;;8.79;84.77
68301;BME280;55146;47.468;18.806;2023-01-08T10:39:54;99884.78;;;9.13;83.43
68301;BME280;55146;47.468;18.806;2023-01-08T10:42:21;99890.53;;;9.12;84.09
68301;BME280;55146;47.468;18.806;2023-01-08T10:44:58;99879.03;;;9.25;83.49
68301;BME280;55146;47.468;18.806;2023-01-08T10:47:27;99874.13;;;9.42;82.41
68301;BME280;55146;47.468;18.806;2023-01-08T10:49:55;99861.53;;;9.61;81.42
68301;BME280;55146;47.468;18.806;2023-01-08T10:52:29;99859.88;;;9.55;81.77
68301;BME280;55146;47.468;18.806;2023-01-08T10:57:53;99861.50;;;9.77;80.18
68301;BME280;55146;47.468;18.806;2023-01-08T11:00:24;99857.91;;;10.06;79.51
68301;BME280;55146;47.468;18.806;2023-01-08T11:02:50;99846.09;;;10.11;79.34
68301;BME280;55146;47.468;18.806;2023-01-08T11:05:16;99836.97;;;10.46;78.12
68301;BME280;55146;47.468;18.806;2023-01-08T11:07:42;99845.25;;;10.26;77.90
68301;BME280;55146;47.468;18.806;2023-01-08T11:10:21;99834.25;;;10.31;78.14
68301;BME280;55146;47.468;18.806;2023-01-08T11:12:46;99827.84;;;10.61;76.84
68301;BME280;55146;47.468;18.806;2023-01-08T11:17:44;99821.88;;;10.38;78.35
68301;BME280;55146;47.468;18.806;2023-01-08T11:20:28;99817.25;;;10.19;78.33
68301;BME280;55146;47.468;18.806;2023-01-08T11:23:21;99802.97;;;10.01;78.94
68301;BME280;55146;47.468;18.806;2023-01-08T11:26:08;99804.63;;;9.92;79.54
68301;BME280;55146;47.468;18.806;2023-01-08T11:29:10;99791.06;;;10.41;78.42
68301;BME280;55146;47.468;18.806;2023-01-08T11:31:56;99788.97;;;10.18;78.30
68301;BME280;55146;47.468;18.806;2023-01-08T11:34:56;99783.78;;;9.51;80.71
68301;BME280;55146;47.468;18.806;2023-01-08T11:37:29;99784.59;;;9.77;80.08
68301;BME280;55146;47.468;18.806;2023-01-08T11:39:57;99789.56;;;9.64;80.85
68301;BME280;55146;47.468;18.806;2023-01-08T11:48:15;99767.31;;;9.81;79.85
68301;BME280;55146;47.468;18.806;2023-01-08T11:51:16;99768.94;;;9.77;80.00
68301;BME280;55146;47.468;18.806;2023-01-08T11:54:04;99765.37;;;9.71;80.91
68301;BME280;55146;47.468;18.806;2023-01-08T12:05:08;99743.34;;;9.97;80.48
68301;BME280;55146;47.468;18.806;2023-01-08T12:10:19;99734.81;;;10.03;79.67
68301;BME280;55146;47.468;18.806;2023-01-08T12:33:36;99744.22;;;9.72;81.59
68301;BME280;55146;47.468;18.806;2023-01-08T12:36:29;99745.31;;;9.76;82.17
68301;BME280;55146;47.468;18.806;2023-01-08T12:39:02;99741.47;;;9.77;81.96
68301;BME280;55146;47.468;18.806;2023-01-08T12:41:30;99742.31;;;9.72;82.15
68301;BME280;55146;47.468;18.806;2023-01-08T12:44:10;99731.59;;;9.71;81.80
68301;BME280;55146;47.468;18.806;2023-01-08T12:46:43;99732.38;;;9.82;81.37
68301;BME280;55146;47.468;18.806;2023-01-08T12:49:12;99730.22;;;9.79;81.58
68301;BME280;55146;47.468;18.806;2023-01-08T12:52:05;99736.25;;;9.75;81.29
68301;BME280;55146;47.468;18.806;2023-01-08T12:54:58;99734.63;;;9.74;81.44
68301;BME280;55146;47.468;18.806;2023-01-08T12:57:41;99733.53;;;9.60;82.59
68301;BME280;55146;47.468;18.806;2023-01-08T13:00:26;99737.62;;;9.63;82.77
68301;BME280;55146;47.468;18.806;2023-01-08T13:02:59;99723.41;;;9.56;82.80
68301;BME280;55146;47.468;18.806;2023-01-08T13:05:36;99728.59;;;9.62;82.55
68301;BME280;55146;47.468;18.806;2023-01-08T13:08:07;99735.19;;;9.61;82.61
68301;BME280;55146;47.468;18.806;2023-01-08T13:10:50;99718.97;;;9.70;82.49
68301;BME280;55146;47.468;18.806;2023-01-08T13:13:31;99725.25;;;9.75;82.16
68301;BME280;55146;47.468;18.806;2023-01-08T13:18:31;99722.00;;;9.73;82.31
68301;BME280;55146;47.468;18.806;2023-01-08T13:20:59;99723.62;;;9.69;82.51
68301;BME280;55146;47.468;18.806;2023-01-08T13:23:28;99719.78;;;9.65;82.85
68301;BME280;55146;47.468;18.806;2023-01-08T13:25:57;99711.56;;;9.60;82.93
68301;BME280;55146;47.468;18.806;2023-01-08T13:28:43;99715.41;;;9.59;83.47
68301;BME280;55146;47.468;18.806;2023-01-08T13:33:47;99702.19;;;9.77;82.57
68301;BME280;55146;47.468;18.806;2023-01-08T13:36:24;99701.44;;;9.56;83.62
68301;BME280;55146;47.468;18.806;2023-01-08T19:32:30;99596.03;;;20.30;53.13
68301;BME280;55146;47.468;18.806;2023-01-08T19:34:55;99596.03;;;20.30;53.13
68301;BME280;55146;47.468;18.806;2023-01-08T19:37:21;99584.47;;;19.46;55.16
68301;BME280;55146;47.468;18.806;2023-01-08T19:39:46;99585.53;;;19.21;55.85
68301;BME280;55146;47.468;18.806;2023-01-08T19:42:12;99581.44;;;19.06;56.46
68301;BME280;55146;47.468;18.806;2023-01-08T19:44:57;99582.66;;;18.96;56.84
68301;BME280;55146;47.468;18.806;2023-01-08T19:47:23;99578.78;;;18.89;57.02
68301;BME280;55146;47.468;18.806;2023-01-08T19:49:49;99583.44;;;18.85;57.13
68301;BME280;55146;47.468;18.806;2023-01-08T19:52:15;99580.16;;;18.83;57.23